sensor_id;sensor_type;location;lat;lon;timestamp;pressure;altitude;pressure_sealevel;temperature;humidity
59443;BME280;45247;47.466;19.004;2024-02-14T00:00:32;100363.84;;;3.97;98.68
59443;BME280;45247;47.466;19.004;2024-02-14T00:03:00;100362.09;;;3.99;97.10
59443;BME280;45247;47.466;19.004;2024-02-14T00:05:29;100366.91;;;4.15;94.81
59443;BME280;45247;47.466;19.004;2024-02-14T00:07:58;100364.16;;;4.21;94.42
59443;BME280;45247;47.466;19.004;2024-02-14T00:10:26;100365.00;;;4.21;92.89
59443;BME280;45247;47.466;19.004;2024-02-14T00:12:54;100364.81;;;4.29;91.31
59443;BME280;45247;47.466;19.004;2024-02-14T00:15:22;100362.84;;;4.37;89.95
59443;BME280;45247;47.466;19.004;2024-02-14T00:17:53;100372.41;;;4.37;90.25
59443;BME280;45247;47.466;19.004;2024-02-14T00:20:21;100373.38;;;4.34;89.74
59443;BME280;45247;47.466;19.004;2024-02-14T00:22:50;100376.06;;;4.31;91.01
59443;BME280;45247;47.466;19.004;2024-02-14T00:25:19;100382.91;;;4.35;89.35
59443;BME280;45247;47.466;19.004;2024-02-14T00:27:47;100377.94;;;4.26;90.54
59443;BME280;45247;47.466;19.004;2024-02-14T00:30:15;100376.47;;;4.16;92.13
59443;BME280;45247;47.466;19.004;2024-02-14T00:32:43;100376.69;;;4.07;93.29
59443;BME280;45247;47.466;19.004;2024-02-14T00:35:13;100384.69;;;4.00;94.20
59443;BME280;45247;47.466;19.004;2024-02-14T00:37:41;100382.03;;;4.02;92.63
59443;BME280;45247;47.466;19.004;2024-02-14T00:40:10;100383.09;;;3.95;93.36
59443;BME280;45247;47.466;19.004;2024-02-14T00:42:39;100386.31;;;4.05;92.75
59443;BME280;45247;47.466;19.004;2024-02-14T00:45:08;100393.44;;;3.99;93.11
59443;BME280;45247;47.466;19.004;2024-02-14T00:47:36;100392.75;;;3.91;94.73
59443;BME280;45247;47.466;19.004;2024-02-14T00:50:06;100400.53;;;3.94;94.36
59443;BME280;45247;47.466;19.004;2024-02-14T00:52:36;100399.63;;;3.95;94.71
59443;BME280;45247;47.466;19.004;2024-02-14T00:55:04;100404.00;;;3.93;95.41
59443;BME280;45247;47.466;19.004;2024-02-14T00:57:32;100396.78;;;4.05;94.94
59443;BME280;45247;47.466;19.004;2024-02-14T01:00:00;100400.84;;;4.15;93.50
59443;BME280;45247;47.466;19.004;2024-02-14T01:02:30;100398.19;;;4.18;93.86
59443;BME280;45247;47.466;19.004;2024-02-14T01:04:59;100395.75;;;4.10;94.50
59443;BME280;45247;47.466;19.004;2024-02-14T01:07:27;100397.38;;;4.16;93.13
59443;BME280;45247;47.466;19.004;2024-02-14T01:09:56;100384.44;;;4.10;93.92
59443;BME280;45247;47.466;19.004;2024-02-14T01:12:25;100391.31;;;4.14;93.19
59443;BME280;45247;47.466;19.004;2024-02-14T01:14:53;100394.41;;;4.28;92.18
59443;BME280;45247;47.466;19.004;2024-02-14T01:17:22;100382.38;;;4.22;92.13
59443;BME280;45247;47.466;19.004;2024-02-14T01:19:50;100393.44;;;4.32;90.41
59443;BME280;45247;47.466;19.004;2024-02-14T01:22:19;100395.25;;;4.30;89.82
59443;BME280;45247;47.466;19.004;2024-02-14T01:24:48;100394.41;;;4.30;90.25
59443;BME280;45247;47.466;19.004;2024-02-14T01:27:17;100391.88;;;4.26;89.59
59443;BME280;45247;47.466;19.004;2024-02-14T01:29:46;100393.66;;;4.24;89.41
59443;BME280;45247;47.466;19.004;2024-02-14T01:32:14;100385.91;;;4.21;90.19
59443;BME280;45247;47.466;19.004;2024-02-14T01:34:42;100385.16;;;4.16;88.56
59443;BME280;45247;47.466;19.004;2024-02-14T01:37:10;100394.66;;;4.19;87.43
59443;BME280;45247;47.466;19.004;2024-02-14T01:39:38;100387.59;;;4.22;86.68
59443;BME280;45247;47.466;19.004;2024-02-14T01:42:07;100390.22;;;4.22;86.21
59443;BME280;45247;47.466;19.004;2024-02-14T01:44:36;100392.09;;;4.17;86.47
59443;BME280;45247;47.466;19.004;2024-02-14T01:47:05;100392.94;;;4.18;85.64
59443;BME280;45247;47.466;19.004;2024-02-14T01:49:33;100397.41;;;4.14;85.86
59443;BME280;45247;47.466;19.004;2024-02-14T01:52:04;100402.44;;;4.22;83.01
59443;BME280;45247;47.466;19.004;2024-02-14T01:54:33;100397.22;;;4.22;83.66
59443;BME280;45247;47.466;19.004;2024-02-14T01:57:02;100398.03;;;4.24;82.57
59443;BME280;45247;47.466;19.004;2024-02-14T01:59:30;100397.22;;;4.22;82.69
59443;BME280;45247;47.466;19.004;2024-02-14T02:02:00;100405.34;;;4.10;84.98
59443;BME280;45247;47.466;19.004;2024-02-14T02:04:29;100402.00;;;4.05;85.11
59443;BME280;45247;47.466;19.004;2024-02-14T02:06:57;100410.31;;;3.85;89.94
59443;BME280;45247;47.466;19.004;2024-02-14T02:09:25;100406.44;;;3.64;90.95
59443;BME280;45247;47.466;19.004;2024-02-14T02:11:53;100401.53;;;3.51;94.60
59443;BME280;45247;47.466;19.004;2024-02-14T02:14:23;100406.59;;;3.58;89.19
59443;BME280;45247;47.466;19.004;2024-02-14T02:16:51;100408.03;;;3.71;87.08
59443;BME280;45247;47.466;19.004;2024-02-14T02:19:21;100406.56;;;3.59;88.27
59443;BME280;45247;47.466;19.004;2024-02-14T02:21:49;100412.03;;;3.48;88.18
59443;BME280;45247;47.466;19.004;2024-02-14T02:24:20;100409.41;;;3.48;88.44
59443;BME280;45247;47.466;19.004;2024-02-14T02:26:48;100409.53;;;3.42;88.73
59443;BME280;45247;47.466;19.004;2024-02-14T02:29:16;100409.28;;;3.55;86.13
59443;BME280;45247;47.466;19.004;2024-02-14T02:31:46;100415.13;;;3.66;84.05
59443;BME280;45247;47.466;19.004;2024-02-14T02:34:14;100406.59;;;3.58;86.35
59443;BME280;45247;47.466;19.004;2024-02-14T02:36:43;100402.19;;;3.61;84.48
59443;BME280;45247;47.466;19.004;2024-02-14T02:39:12;100417.78;;;3.64;84.78
59443;BME280;45247;47.466;19.004;2024-02-14T02:41:42;100411.75;;;3.61;84.47
59443;BME280;45247;47.466;19.004;2024-02-14T02:44:14;100425.09;;;3.48;86.55
59443;BME280;45247;47.466;19.004;2024-02-14T02:46:42;100439.19;;;3.38;92.30
59443;BME280;45247;47.466;19.004;2024-02-14T02:49:12;100433.47;;;3.22;96.28
59443;BME280;45247;47.466;19.004;2024-02-14T02:51:42;100439.47;;;2.84;100.00
59443;BME280;45247;47.466;19.004;2024-02-14T02:54:10;100448.50;;;2.65;100.00
59443;BME280;45247;47.466;19.004;2024-02-14T02:56:38;100449.66;;;2.50;100.00
59443;BME280;45247;47.466;19.004;2024-02-14T02:59:09;100448.81;;;2.49;100.00
59443;BME280;45247;47.466;19.004;2024-02-14T03:01:37;100442.09;;;2.36;100.00
59443;BME280;45247;47.466;19.004;2024-02-14T03:04:06;100459.78;;;2.16;100.00
59443;BME280;45247;47.466;19.004;2024-02-14T03:06:35;100459.31;;;1.91;100.00
59443;BME280;45247;47.466;19.004;2024-02-14T03:09:03;100463.09;;;1.70;100.00
59443;BME280;45247;47.466;19.004;2024-02-14T03:11:32;100461.53;;;1.57;100.00
59443;BME280;45247;47.466;19.004;2024-02-14T03:14:02;100471.97;;;1.54;100.00
59443;BME280;45247;47.466;19.004;2024-02-14T03:16:32;100469.50;;;1.46;100.00
59443;BME280;45247;47.466;19.004;2024-02-14T03:19:00;100473.94;;;1.36;100.00
59443;BME280;45247;47.466;19.004;2024-02-14T03:21:30;100476.53;;;1.39;100.00
59443;BME280;45247;47.466;19.004;2024-02-14T03:23:59;100477.44;;;1.35;100.00
59443;BME280;45247;47.466;19.004;2024-02-14T03:26:27;100478.22;;;1.40;100.00
59443;BME280;45247;47.466;19.004;2024-02-14T03:28:56;100483.50;;;1.37;100.00
59443;BME280;45247;47.466;19.004;2024-02-14T03:31:24;100488.75;;;1.31;100.00
59443;BME280;45247;47.466;19.004;2024-02-14T03:33:54;100495.78;;;1.23;100.00
59443;BME280;45247;47.466;19.004;2024-02-14T03:36:22;100495.88;;;1.17;100.00
59443;BME280;45247;47.466;19.004;2024-02-14T03:38:51;100494.22;;;1.10;100.00
59443;BME280;45247;47.466;19.004;2024-02-14T03:41:19;100498.53;;;1.11;100.00
59443;BME280;45247;47.466;19.004;2024-02-14T03:43:47;100492.50;;;1.09;100.00
59443;BME280;45247;47.466;19.004;2024-02-14T03:46:16;100500.38;;;1.01;100.00
59443;BME280;45247;47.466;19.004;2024-02-14T03:48:44;100507.41;;;0.94;100.00
59443;BME280;45247;47.466;19.004;2024-02-14T03:51:16;100508.25;;;0.93;100.00
59443;BME280;45247;47.466;19.004;2024-02-14T03:53:44;100507.41;;;0.93;100.00
59443;BME280;45247;47.466;19.004;2024-02-14T03:56:12;100517.81;;;0.91;100.00
59443;BME280;45247;47.466;19.004;2024-02-14T03:58:43;100519.59;;;0.88;100.00
59443;BME280;45247;47.466;19.004;2024-02-14T04:01:11;100518.69;;;0.90;100.00
59443;BME280;45247;47.466;19.004;2024-02-14T04:03:39;100522.22;;;0.83;100.00
59443;BME280;45247;47.466;19.004;2024-02-14T04:06:07;100530.84;;;0.88;100.00
59443;BME280;45247;47.466;19.004;2024-02-14T04:08:37;100532.44;;;1.02;100.00
59443;BME280;45247;47.466;19.004;2024-02-14T04:11:05;100527.03;;;1.20;100.00
59443;BME280;45247;47.466;19.004;2024-02-14T04:13:33;100535.81;;;1.10;100.00
59443;BME280;45247;47.466;19.004;2024-02-14T04:16:01;100530.59;;;1.11;100.00
59443;BME280;45247;47.466;19.004;2024-02-14T04:18:29;100534.22;;;0.96;100.00
59443;BME280;45247;47.466;19.004;2024-02-14T04:20:58;100545.47;;;0.97;100.00
59443;BME280;45247;47.466;19.004;2024-02-14T04:23:26;100539.44;;;0.93;100.00
59443;BME280;45247;47.466;19.004;2024-02-14T04:25:55;100556.91;;;0.82;100.00
59443;BME280;45247;47.466;19.004;2024-02-14T04:28:24;100558.66;;;0.79;100.00
59443;BME280;45247;47.466;19.004;2024-02-14T04:30:52;100556.97;;;0.71;100.00
59443;BME280;45247;47.466;19.004;2024-02-14T04:33:22;100554.28;;;0.81;100.00
59443;BME280;45247;47.466;19.004;2024-02-14T04:35:51;100555.19;;;0.77;100.00
59443;BME280;45247;47.466;19.004;2024-02-14T04:38:19;100555.09;;;0.87;100.00
59443;BME280;45247;47.466;19.004;2024-02-14T04:40:47;100556.84;;;0.85;100.00
59443;BME280;45247;47.466;19.004;2024-02-14T04:43:17;100569.88;;;0.82;100.00
59443;BME280;45247;47.466;19.004;2024-02-14T04:45:45;100569.09;;;0.74;100.00
59443;BME280;45247;47.466;19.004;2024-02-14T04:48:14;100569.19;;;0.65;100.00
59443;BME280;45247;47.466;19.004;2024-02-14T04:50:43;100567.56;;;0.52;100.00
59443;BME280;45247;47.466;19.004;2024-02-14T04:53:11;100573.69;;;0.43;100.00
59443;BME280;45247;47.466;19.004;2024-02-14T04:55:39;100584.97;;;0.34;100.00
59443;BME280;45247;47.466;19.004;2024-02-14T04:58:07;100585.03;;;0.28;100.00
59443;BME280;45247;47.466;19.004;2024-02-14T05:00:36;100581.56;;;0.29;100.00
59443;BME280;45247;47.466;19.004;2024-02-14T05:03:05;100572.13;;;0.17;100.00
59443;BME280;45247;47.466;19.004;2024-02-14T05:05:34;100588.63;;;0.09;100.00
59443;BME280;45247;47.466;19.004;2024-02-14T05:08:03;100576.53;;;0.02;100.00
59443;BME280;45247;47.466;19.004;2024-02-14T05:10:31;100584.38;;;-0.06;100.00
59443;BME280;45247;47.466;19.004;2024-02-14T05:12:59;100588.69;;;-0.04;100.00
59443;BME280;45247;47.466;19.004;2024-02-14T05:15:29;100592.16;;;-0.08;100.00
59443;BME280;45247;47.466;19.004;2024-02-14T05:17:59;100593.84;;;-0.01;100.00
59443;BME280;45247;47.466;19.004;2024-02-14T05:20:27;100593.03;;;-0.10;100.00
59443;BME280;45247;47.466;19.004;2024-02-14T05:22:56;100593.03;;;-0.04;100.00
59443;BME280;45247;47.466;19.004;2024-02-14T05:25:24;100597.38;;;-0.11;100.00
59443;BME280;45247;47.466;19.004;2024-02-14T05:27:53;100595.59;;;-0.03;100.00
59443;BME280;45247;47.466;19.004;2024-02-14T05:30:22;100603.47;;;-0.19;100.00
59443;BME280;45247;47.466;19.004;2024-02-14T05:32:51;100607.84;;;-0.29;100.00
59443;BME280;45247;47.466;19.004;2024-02-14T05:35:22;100611.28;;;-0.35;100.00
59443;BME280;45247;47.466;19.004;2024-02-14T05:37:50;100622.56;;;-0.37;100.00
59443;BME280;45247;47.466;19.004;2024-02-14T05:40:18;100614.81;;;-0.49;100.00
59443;BME280;45247;47.466;19.004;2024-02-14T05:42:46;100612.22;;;-0.46;100.00
59443;BME280;45247;47.466;19.004;2024-02-14T05:45:14;100614.78;;;-0.37;100.00
59443;BME280;45247;47.466;19.004;2024-02-14T05:47:43;100614.81;;;-0.45;100.00
59443;BME280;45247;47.466;19.004;2024-02-14T05:50:11;100615.66;;;-0.43;100.00
59443;BME280;45247;47.466;19.004;2024-02-14T05:52:41;100628.66;;;-0.51;100.00
59443;BME280;45247;47.466;19.004;2024-02-14T05:55:09;100619.16;;;-0.50;100.00
59443;BME280;45247;47.466;19.004;2024-02-14T05:57:37;100639.88;;;-0.41;100.00
59443;BME280;45247;47.466;19.004;2024-02-14T06:00:07;100639.88;;;-0.41;100.00
59443;BME280;45247;47.466;19.004;2024-02-14T06:02:38;100634.69;;;-0.48;100.00
59443;BME280;45247;47.466;19.004;2024-02-14T06:05:07;100638.16;;;-0.48;100.00
59443;BME280;45247;47.466;19.004;2024-02-14T06:07:40;100647.66;;;-0.44;100.00
59443;BME280;45247;47.466;19.004;2024-02-14T06:10:09;100650.22;;;-0.39;100.00
59443;BME280;45247;47.466;19.004;2024-02-14T06:12:38;100648.53;;;-0.42;100.00
59443;BME280;45247;47.466;19.004;2024-02-14T06:15:07;100653.69;;;-0.39;100.00
59443;BME280;45247;47.466;19.004;2024-02-14T06:17:36;100656.25;;;-0.31;100.00
59443;BME280;45247;47.466;19.004;2024-02-14T06:20:05;100649.31;;;-0.23;100.00
59443;BME280;45247;47.466;19.004;2024-02-14T06:22:35;100655.31;;;-0.07;100.00
59443;BME280;45247;47.466;19.004;2024-02-14T06:25:16;100654.41;;;0.05;100.00
59443;BME280;45247;47.466;19.004;2024-02-14T06:27:45;100650.88;;;0.12;100.00
59443;BME280;45247;47.466;19.004;2024-02-14T06:30:14;100654.31;;;0.17;100.00
59443;BME280;45247;47.466;19.004;2024-02-14T06:32:44;100647.34;;;0.25;100.00
59443;BME280;45247;47.466;19.004;2024-02-14T06:35:13;100655.09;;;0.34;100.00
59443;BME280;45247;47.466;19.004;2024-02-14T06:37:46;100664.63;;;0.35;100.00
59443;BME280;45247;47.466;19.004;2024-02-14T06:40:30;100664.56;;;0.44;100.00
59443;BME280;45247;47.466;19.004;2024-02-14T06:42:59;100666.28;;;0.45;100.00
59443;BME280;45247;47.466;19.004;2024-02-14T06:45:27;100661.06;;;0.52;100.00
59443;BME280;45247;47.466;19.004;2024-02-14T06:47:56;100663.59;;;0.59;100.00
59443;BME280;45247;47.466;19.004;2024-02-14T06:50:24;100667.03;;;0.64;100.00
59443;BME280;45247;47.466;19.004;2024-02-14T06:52:53;100667.84;;;0.74;100.00
59443;BME280;45247;47.466;19.004;2024-02-14T06:55:25;100666.91;;;0.81;100.00
59443;BME280;45247;47.466;19.004;2024-02-14T06:57:54;100678.09;;;0.91;100.00
59443;BME280;45247;47.466;19.004;2024-02-14T07:00:23;100667.59;;;1.02;100.00
59443;BME280;45247;47.466;19.004;2024-02-14T07:02:51;100681.38;;;1.13;100.00
59443;BME280;45247;47.466;19.004;2024-02-14T07:05:19;100682.97;;;1.29;100.00
59443;BME280;45247;47.466;19.004;2024-02-14T07:07:47;100679.34;;;1.45;100.00
59443;BME280;45247;47.466;19.004;2024-02-14T07:10:17;100688.72;;;1.62;100.00
59443;BME280;45247;47.466;19.004;2024-02-14T07:12:46;100686.88;;;1.73;100.00
59443;BME280;45247;47.466;19.004;2024-02-14T07:15:15;100687.56;;;1.87;100.00
59443;BME280;45247;47.466;19.004;2024-02-14T07:17:44;100687.44;;;1.99;100.00
59443;BME280;45247;47.466;19.004;2024-02-14T07:20:12;100687.38;;;2.06;100.00
59443;BME280;45247;47.466;19.004;2024-02-14T07:22:40;100690.72;;;2.14;100.00
59443;BME280;45247;47.466;19.004;2024-02-14T07:25:08;100693.19;;;2.24;100.00
59443;BME280;45247;47.466;19.004;2024-02-14T07:27:38;100684.41;;;2.33;100.00
59443;BME280;45247;47.466;19.004;2024-02-14T07:30:07;100687.72;;;2.43;100.00
59443;BME280;45247;47.466;19.004;2024-02-14T07:32:38;100696.47;;;2.40;100.00
59443;BME280;45247;47.466;19.004;2024-02-14T07:35:07;100691.88;;;2.56;100.00
59443;BME280;45247;47.466;19.004;2024-02-14T07:37:36;100688.22;;;2.69;100.00
59443;BME280;45247;47.466;19.004;2024-02-14T07:40:05;100691.56;;;2.79;100.00
59443;BME280;45247;47.466;19.004;2024-02-14T07:42:33;100691.31;;;2.94;100.00
59443;BME280;45247;47.466;19.004;2024-02-14T07:45:02;100697.13;;;3.12;100.00
59443;BME280;45247;47.466;19.004;2024-02-14T07:47:31;100696.03;;;3.26;100.00
59443;BME280;45247;47.466;19.004;2024-02-14T07:50:00;100697.53;;;3.40;100.00
59443;BME280;45247;47.466;19.004;2024-02-14T07:52:29;100704.22;;;3.55;100.00
59443;BME280;45247;47.466;19.004;2024-02-14T07:55:00;100696.06;;;3.73;100.00
59443;BME280;45247;47.466;19.004;2024-02-14T07:57:28;100694.84;;;3.89;100.00
59443;BME280;45247;47.466;19.004;2024-02-14T07:59:56;100699.84;;;4.01;100.00
59443;BME280;45247;47.466;19.004;2024-02-14T08:02:25;100693.47;;;4.15;100.00
59443;BME280;45247;47.466;19.004;2024-02-14T08:04:54;100695.84;;;4.27;100.00
59443;BME280;45247;47.466;19.004;2024-02-14T08:07:24;100695.56;;;4.39;100.00
59443;BME280;45247;47.466;19.004;2024-02-14T08:09:52;100705.00;;;4.46;100.00
59443;BME280;45247;47.466;19.004;2024-02-14T08:12:20;100695.03;;;4.64;100.00
59443;BME280;45247;47.466;19.004;2024-02-14T08:14:49;100703.47;;;4.75;100.00
59443;BME280;45247;47.466;19.004;2024-02-14T08:17:18;100703.19;;;4.87;100.00
59443;BME280;45247;47.466;19.004;2024-02-14T08:19:46;100704.56;;;5.03;100.00
59443;BME280;45247;47.466;19.004;2024-02-14T08:22:15;100697.31;;;5.15;100.00
59443;BME280;45247;47.466;19.004;2024-02-14T08:24:44;100697.03;;;5.27;100.00
59443;BME280;45247;47.466;19.004;2024-02-14T08:27:13;100696.69;;;5.39;100.00
59443;BME280;45247;47.466;19.004;2024-02-14T08:29:41;100704.34;;;5.48;100.00
59443;BME280;45247;47.466;19.004;2024-02-14T08:32:12;100701.38;;;5.61;100.00
59443;BME280;45247;47.466;19.004;2024-02-14T08:34:40;100699.41;;;5.69;100.00
59443;BME280;45247;47.466;19.004;2024-02-14T08:37:08;100699.84;;;5.85;100.00
59443;BME280;45247;47.466;19.004;2024-02-14T08:39:37;100702.19;;;5.97;100.00
59443;BME280;45247;47.466;19.004;2024-02-14T08:42:06;100701.84;;;6.08;100.00
59443;BME280;45247;47.466;19.004;2024-02-14T08:44:35;100706.75;;;6.20;100.00
59443;BME280;45247;47.466;19.004;2024-02-14T08:47:06;100697.91;;;6.24;100.00
59443;BME280;45247;47.466;19.004;2024-02-14T08:49:34;100714.22;;;6.34;100.00
59443;BME280;45247;47.466;19.004;2024-02-14T08:52:03;100711.47;;;6.38;96.71
59443;BME280;45247;47.466;19.004;2024-02-14T08:54:32;100699.94;;;6.44;95.15
59443;BME280;45247;47.466;19.004;2024-02-14T08:57:00;100698.72;;;6.56;94.54
59443;BME280;45247;47.466;19.004;2024-02-14T08:59:31;100698.81;;;6.52;90.63
59443;BME280;45247;47.466;19.004;2024-02-14T09:01:59;100694.91;;;6.66;94.68
59443;BME280;45247;47.466;19.004;2024-02-14T09:04:27;100692.28;;;6.66;93.50
59443;BME280;45247;47.466;19.004;2024-02-14T09:06:56;100697.53;;;6.66;93.46
59443;BME280;45247;47.466;19.004;2024-02-14T09:09:24;100690.13;;;6.78;93.71
59443;BME280;45247;47.466;19.004;2024-02-14T09:11:52;100695.63;;;6.99;89.10
59443;BME280;45247;47.466;19.004;2024-02-14T09:14:22;100690.00;;;7.10;86.43
59443;BME280;45247;47.466;19.004;2024-02-14T09:16:53;100688.97;;;7.15;82.60
59443;BME280;45247;47.466;19.004;2024-02-14T09:19:22;100680.81;;;7.23;84.46
59443;BME280;45247;47.466;19.004;2024-02-14T09:21:52;100687.28;;;7.39;85.44
59443;BME280;45247;47.466;19.004;2024-02-14T09:24:21;100690.41;;;7.50;86.60
59443;BME280;45247;47.466;19.004;2024-02-14T09:26:49;100679.47;;;7.63;83.99
59443;BME280;45247;47.466;19.004;2024-02-14T09:29:17;100687.81;;;7.49;78.60
59443;BME280;45247;47.466;19.004;2024-02-14T09:31:46;100689.59;;;7.22;72.46
59443;BME280;45247;47.466;19.004;2024-02-14T09:34:16;100685.97;;;7.26;72.14
59443;BME280;45247;47.466;19.004;2024-02-14T09:36:47;100687.53;;;7.32;74.61
59443;BME280;45247;47.466;19.004;2024-02-14T09:39:16;100685.25;;;7.47;73.41
59443;BME280;45247;47.466;19.004;2024-02-14T09:41:51;100687.06;;;7.45;74.45
59443;BME280;45247;47.466;19.004;2024-02-14T09:44:21;100669.97;;;7.59;73.31
59443;BME280;45247;47.466;19.004;2024-02-14T09:46:50;100677.03;;;7.57;75.14
59443;BME280;45247;47.466;19.004;2024-02-14T09:49:21;100672.81;;;7.52;75.88
59443;BME280;45247;47.466;19.004;2024-02-14T09:51:51;100675.25;;;7.32;77.60
59443;BME280;45247;47.466;19.004;2024-02-14T09:54:20;100675.16;;;7.35;76.17
59443;BME280;45247;47.466;19.004;2024-02-14T09:56:50;100685.25;;;7.47;78.87
59443;BME280;45247;47.466;19.004;2024-02-14T09:59:21;100675.91;;;7.64;76.56
59443;BME280;45247;47.466;19.004;2024-02-14T10:01:50;100678.00;;;7.79;74.11
59443;BME280;45247;47.466;19.004;2024-02-14T10:04:20;100671.28;;;7.95;72.41
59443;BME280;45247;47.466;19.004;2024-02-14T10:06:52;100681.25;;;8.11;70.24
59443;BME280;45247;47.466;19.004;2024-02-14T10:09:21;100676.59;;;8.17;69.09
59443;BME280;45247;47.466;19.004;2024-02-14T10:11:49;100676.19;;;8.28;68.21
59443;BME280;45247;47.466;19.004;2024-02-14T10:14:17;100667.88;;;8.40;68.25
59443;BME280;45247;47.466;19.004;2024-02-14T10:16:46;100672.91;;;8.46;67.67
59443;BME280;45247;47.466;19.004;2024-02-14T10:19:15;100665.63;;;8.53;67.04
59443;BME280;45247;47.466;19.004;2024-02-14T10:21:55;100666.72;;;8.47;66.48
59443;BME280;45247;47.466;19.004;2024-02-14T10:24:24;100662.69;;;8.61;65.58
59443;BME280;45247;47.466;19.004;2024-02-14T10:26:53;100663.25;;;8.69;66.17
59443;BME280;45247;47.466;19.004;2024-02-14T10:29:25;100658.22;;;8.63;65.40
59443;BME280;45247;47.466;19.004;2024-02-14T10:31:53;100658.34;;;8.60;66.38
59443;BME280;45247;47.466;19.004;2024-02-14T10:34:25;100649.53;;;8.61;65.67
59443;BME280;45247;47.466;19.004;2024-02-14T10:36:56;100654.06;;;8.57;66.80
59443;BME280;45247;47.466;19.004;2024-02-14T10:39:27;100652.34;;;8.56;65.19
59443;BME280;45247;47.466;19.004;2024-02-14T10:41:57;100650.59;;;8.57;65.11
59443;BME280;45247;47.466;19.004;2024-02-14T10:44:27;100657.25;;;8.65;65.00
59443;BME280;45247;47.466;19.004;2024-02-14T10:46:56;100645.84;;;8.65;64.97
59443;BME280;45247;47.466;19.004;2024-02-14T10:49:29;100653.75;;;8.43;62.45
59443;BME280;45247;47.466;19.004;2024-02-14T10:52:01;100654.03;;;8.35;63.94
59443;BME280;45247;47.466;19.004;2024-02-14T10:54:35;100657.00;;;8.49;61.98
59443;BME280;45247;47.466;19.004;2024-02-14T10:57:05;100657.69;;;8.31;63.16
59443;BME280;45247;47.466;19.004;2024-02-14T10:59:42;100647.63;;;8.19;61.44
59443;BME280;45247;47.466;19.004;2024-02-14T11:02:12;100636.88;;;8.25;63.27
59443;BME280;45247;47.466;19.004;2024-02-14T11:04:41;100638.13;;;8.38;62.98
59443;BME280;45247;47.466;19.004;2024-02-14T11:07:11;100638.34;;;8.32;62.91
59443;BME280;45247;47.466;19.004;2024-02-14T11:09:40;100647.88;;;8.58;62.36
59443;BME280;45247;47.466;19.004;2024-02-14T11:12:09;100631.84;;;8.64;63.69
59443;BME280;45247;47.466;19.004;2024-02-14T11:14:42;100634.66;;;8.60;63.44
59443;BME280;45247;47.466;19.004;2024-02-14T11:17:12;100627.94;;;8.52;63.68
59443;BME280;45247;47.466;19.004;2024-02-14T11:19:41;100630.75;;;8.70;64.78
59443;BME280;45247;47.466;19.004;2024-02-14T11:22:12;100638.78;;;8.67;65.08
59443;BME280;45247;47.466;19.004;2024-02-14T11:24:40;100635.97;;;8.71;64.22
59443;BME280;45247;47.466;19.004;2024-02-14T11:27:10;100633.88;;;8.80;64.70
59443;BME280;45247;47.466;19.004;2024-02-14T11:29:59;100628.03;;;8.93;66.26
59443;BME280;45247;47.466;19.004;2024-02-14T11:32:28;100620.53;;;8.84;65.80
59443;BME280;45247;47.466;19.004;2024-02-14T11:34:57;100622.50;;;8.79;66.62
59443;BME280;45247;47.466;19.004;2024-02-14T11:37:30;100616.47;;;8.97;66.55
59443;BME280;45247;47.466;19.004;2024-02-14T11:39:59;100618.47;;;9.13;66.94
59443;BME280;45247;47.466;19.004;2024-02-14T11:42:28;100613.59;;;9.24;66.01
59443;BME280;45247;47.466;19.004;2024-02-14T11:44:57;100606.19;;;8.91;65.15
59443;BME280;45247;47.466;19.004;2024-02-14T11:47:26;100604.34;;;8.93;65.67
59443;BME280;45247;47.466;19.004;2024-02-14T11:49:54;100603.09;;;9.02;65.67
59443;BME280;45247;47.466;19.004;2024-02-14T11:52:25;100599.97;;;9.14;66.13
59443;BME280;45247;47.466;19.004;2024-02-14T11:54:55;100593.84;;;9.34;64.91
59443;BME280;45247;47.466;19.004;2024-02-14T11:57:24;100595.00;;;9.47;64.31
59443;BME280;45247;47.466;19.004;2024-02-14T11:59:53;100593.22;;;9.68;64.13
59443;BME280;45247;47.466;19.004;2024-02-14T12:02:22;100591.50;;;9.86;64.61
59443;BME280;45247;47.466;19.004;2024-02-14T12:04:50;100591.72;;;9.82;59.47
59443;BME280;45247;47.466;19.004;2024-02-14T12:07:21;100597.22;;;9.77;59.03
59443;BME280;45247;47.466;19.004;2024-02-14T12:09:49;100600.06;;;9.91;57.66
59443;BME280;45247;47.466;19.004;2024-02-14T12:12:19;100594.06;;;9.88;57.59
59443;BME280;45247;47.466;19.004;2024-02-14T12:14:51;100595.66;;;9.92;55.87
59443;BME280;45247;47.466;19.004;2024-02-14T12:17:20;100596.19;;;9.79;56.04
59443;BME280;45247;47.466;19.004;2024-02-14T12:19:48;100593.25;;;9.67;55.79
59443;BME280;45247;47.466;19.004;2024-02-14T12:22:18;100603.91;;;9.84;55.18
59443;BME280;45247;47.466;19.004;2024-02-14T12:24:48;100601.50;;;9.98;54.00
59443;BME280;45247;47.466;19.004;2024-02-14T12:27:18;100595.50;;;9.95;52.82
59443;BME280;45247;47.466;19.004;2024-02-14T12:29:47;100602.06;;;9.86;51.55
59443;BME280;45247;47.466;19.004;2024-02-14T12:32:16;100584.13;;;9.94;52.71
59443;BME280;45247;47.466;19.004;2024-02-14T12:34:45;100587.66;;;10.12;52.21
59443;BME280;45247;47.466;19.004;2024-02-14T12:37:13;100585.53;;;10.20;51.14
59443;BME280;45247;47.466;19.004;2024-02-14T12:39:42;100577.53;;;10.22;52.37
59443;BME280;45247;47.466;19.004;2024-02-14T12:42:10;100578.97;;;10.10;52.02
59443;BME280;45247;47.466;19.004;2024-02-14T12:44:40;100575.56;;;10.08;51.11
59443;BME280;45247;47.466;19.004;2024-02-14T12:47:08;100579.56;;;9.98;51.58
59443;BME280;45247;47.466;19.004;2024-02-14T12:49:36;100583.81;;;10.00;49.88
59443;BME280;45247;47.466;19.004;2024-02-14T12:52:05;100585.59;;;10.00;50.04
59443;BME280;45247;47.466;19.004;2024-02-14T12:54:33;100566.28;;;9.99;50.06